Latest Weather Observations for Cobar Airport

IDN60801

Issued at 10:03 pm EST Tuesday 4 August 2020 (issued every 10 minutes, with the page automatically refreshed every 10 minutes)

About weather observations | Map of weather stations | Latest weather observations for NSW | Other Formats
Station Details ID: 048237 Name: COBAR AIRPORT AWS Lat: -31.54 Lon: 145.80 Height: 218.0 m
Data from the previous 72 hours. | See also: Recent months at Cobar Airport
Date/Time
EST
Temp
°C
App
Temp
°C
Dew
Point
°C
Rel
Hum
%
Delta-T
°C
Wind Press
QNH
hPa
Press
MSL
hPa
Rain since
9am
mm
Dir  Spd
km/h
Gust
km/h
Spd
kts
Gust
kts
04/10:00pm 7.3 2.4 -0.6 57 3.1 S 15 19 8 10 1017.7 1017.8 0.0
04/09:30pm 7.7 2.8 -0.8 55 3.3 S 15 17 8 9 1017.5 1017.6 0.0
04/09:00pm 8.7 3.8 -0.6 52 3.7 SSW 15 20 8 11 1017.4 1017.5 0.0
04/08:30pm 8.6 5.0 0.8 58 3.2 S 9 11 5 6 1017.0 1017.1 0.0
04/08:00pm 9.6 5.8 1.5 57 3.4 SSW 11 15 6 8 1016.7 1016.8 0.0
04/07:30pm 10.7 6.5 1.8 54 3.8 SSW 13 17 7 9 1016.5 1016.6 0.0
04/07:00pm 11.0 7.0 2.6 56 3.7 S 13 15 7 8 1016.3 1016.4 0.0
04/06:30pm 11.8 7.8 2.8 54 4.0 SSW 13 15 7 8 1016.1 1016.2 0.0
04/06:00pm 12.8 8.0 2.6 50 4.5 SSW 17 22 9 12 1015.8 1015.9 0.0
04/05:30pm 13.9 8.8 3.1 48 4.9 S 19 24 10 13 1015.5 1015.6 0.0
04/05:00pm 14.6 9.9 3.1 46 5.2 SSW 17 24 9 13 1015.3 1015.4 0.0
04/04:30pm 15.2 10.0 3.4 45 5.4 S 20 26 11 14 1015.2 1015.3 0.0
04/04:00pm 15.6 10.3 3.1 43 5.7 SW 20 30 11 16 1014.8 1014.8 0.0
04/03:30pm 16.1 10.8 3.2 42 6.0 SSW 20 28 11 15 1014.7 1014.7 0.0
04/03:00pm 16.6 10.8 4.3 44 5.8 SW 24 35 13 19 1014.4 1014.5 0.0
04/02:30pm 17.4 12.6 4.7 43 6.1 SSW 19 28 10 15 1014.3 1014.4 0.0
04/02:00pm 17.6 12.7 3.9 40 6.5 SSW 19 28 10 15 1014.4 1014.5 0.0
04/01:30pm 17.5 12.3 3.8 40 6.5 SSW 20 26 11 14 1014.4 1014.5 0.0
04/01:00pm 17.6 13.0 3.5 39 6.6 SSW 17 30 9 16 1014.5 1014.6 0.0
04/12:30pm 17.6 12.4 2.4 36 7.0 SW 19 28 10 15 1015.0 1015.0 0.0
04/12:00pm 17.2 11.8 1.2 34 7.1 SSW 19 26 10 14 1015.2 1015.3 0.0
04/11:30am 16.8 12.2 1.7 36 6.8 SW 15 24 8 13 1015.4 1015.5 0.0
04/11:00am 16.8 11.8 1.3 35 6.9 SW 17 24 9 13 1015.9 1016.0 0.0
04/10:30am 16.3 11.4 2.0 38 6.5 SW 17 24 9 13 1016.1 1016.2 0.0
04/10:00am 15.4 10.7 1.2 38 6.2 SW 15 22 8 12 1016.0 1016.1 0.0
04/09:30am 14.3 10.0 1.2 41 5.7 SW 13 17 7 9 1015.8 1015.9 0.0
04/09:00am 12.3 9.0 2.7 52 4.2 WSW 9 11 5 6 1015.7 1015.8 0.0
04/08:30am 10.5 6.8 2.6 58 3.4 SSW 11 19 6 10 1015.7 1015.8 0.0
04/08:00am 10.4 7.6 3.0 60 3.2 NNE 7 9 4 5 1015.1 1015.2 0.0
04/07:30am 10.0 6.7 2.6 60 3.2 NNE 9 13 5 7 1014.7 1014.7 0.0
04/07:00am 9.3 6.1 3.1 65 2.7 NE 9 11 5 6 1014.5 1014.6 0.0
04/06:30am 6.5 3.6 2.8 77 1.6 NE 7 9 4 5 1014.7 1014.7 0.0
04/06:00am 6.2 3.3 2.5 77 1.5 NE 7 7 4 4 1014.7 1014.7 0.0
04/05:30am 8.7 5.1 3.1 68 2.4 NNE 11 13 6 7 1014.5 1014.6 0.0
04/05:00am 9.0 5.4 3.0 66 2.6 NNE 11 13 6 7 1014.4 1014.5 0.0
04/04:30am 9.7 6.6 3.4 65 2.8 NE 9 13 5 7 1014.5 1014.6 0.0
04/04:00am 9.2 5.6 3.0 65 2.7 NE 11 15 6 8 1014.7 1014.7 0.0
04/03:30am 8.9 4.4 2.3 63 2.8 NE 15 19 8 10 1014.8 1014.8 0.0
04/03:00am 8.8 4.6 1.7 61 3.0 NE 13 15 7 8 1015.0 1015.0 0.0
04/02:30am 8.9 4.6 1.3 59 3.2 NE 13 15 7 8 1015.2 1015.3 0.0
04/02:00am 9.0 4.7 1.2 58 3.2 NE 13 13 7 7 1015.5 1015.6 0.0
04/01:30am 8.5 4.3 1.9 63 2.8 NE 13 15 7 8 1015.8 1015.9 0.0
04/01:00am 8.4 4.6 2.0 64 2.7 NE 11 13 6 7 1016.0 1016.1 0.0
04/12:30am 7.7 4.4 2.6 70 2.2 NE 9 11 5 6 1016.0 1016.1 0.0
04/12:00am 7.1 4.3 3.3 77 1.6 NE 7 9 4 5 1016.1 1016.2 0.0
 
Date/Time
EST
Temp
°C
App
Temp
°C
Dew
Point
°C
Rel
Hum
%
Delta-T
°C
Wind Press
QNH
hPa
Press
MSL
hPa
Rain since
9am
mm
Dir  Spd
km/h
Gust
km/h
Spd
kts
Gust
kts
03/11:30pm 6.0 4.0 2.1 76 1.6 NE 2 6 1 3 1016.4 1016.5 0.0
03/11:00pm 6.6 4.0 3.0 78 1.5 NE 6 7 3 4 1016.5 1016.6 0.0
03/10:30pm 6.4 4.8 2.3 75 1.7 CALM 0 0 0 0 1016.6 1016.7 0.0
03/10:00pm 7.4 5.0 1.9 68 2.3 NE 4 7 2 4 1016.5 1016.6 0.0
03/09:30pm 9.3 6.1 2.9 64 2.8 NE 9 9 5 5 1016.4 1016.5 0.0
03/09:00pm 9.7 6.1 3.0 63 2.9 NE 11 13 6 7 1016.4 1016.5 0.0
03/08:30pm 10.2 7.4 3.0 61 3.1 ENE 7 9 4 5 1016.6 1016.7 0.0
03/08:00pm 10.6 8.3 2.7 58 3.4 ENE 4 9 2 5 1016.6 1016.7 0.0
03/07:30pm 11.0 8.1 2.6 56 3.7 ENE 7 9 4 5 1016.4 1016.5 0.0
03/07:00pm 11.9 9.0 2.6 53 4.1 E 7 7 4 4 1016.4 1016.5 0.0
03/06:30pm 13.9 11.1 2.2 45 5.2 E 6 7 3 4 1016.3 1016.4 0.0
03/06:00pm 15.2 13.0 1.0 38 6.2 NE 2 7 1 4 1016.1 1016.2 0.0
03/05:30pm 18.4 15.3 1.4 32 7.7 NE 7 9 4 5 1015.9 1016.0 0.0
03/05:00pm 19.4 15.5 1.4 30 8.2 N 11 15 6 8 1015.9 1016.0 0.0
03/04:30pm 19.7 16.7 1.7 30 8.3 N 7 9 4 5 1016.1 1016.2 0.0
03/04:00pm 19.9 16.7 0.9 28 8.6 NNW 7 11 4 6 1016.3 1016.4 0.0
03/03:30pm 19.7 16.4 0.2 27 8.7 WNW 7 17 4 9 1016.4 1016.5 0.0
03/03:00pm 19.7 15.8 1.2 29 8.4 WNW 11 19 6 10 1016.6 1016.7 0.0
03/02:30pm 19.6 16.0 0.6 28 8.6 NW 9 20 5 11 1016.9 1017.0 0.0
03/02:00pm 19.8 15.7 2.2 31 8.2 W 13 22 7 12 1017.3 1017.4 0.0
03/01:30pm 19.2 14.5 0.8 29 8.3 W 15 22 8 12 1017.8 1017.9 0.0
03/01:00pm 19.2 15.8 2.1 32 7.9 N 9 13 5 7 1018.3 1018.4 0.0
03/12:30pm 18.4 14.4 3.1 36 7.2 N 13 20 7 11 1019.0 1019.2 0.0
03/12:00pm 17.5 13.9 3.0 38 6.7 NNW 11 17 6 9 1019.7 1019.8 0.0
03/11:30am 16.8 13.9 4.5 44 5.9 NNE 9 15 5 8 1020.4 1020.5 0.0
03/11:00am 16.4 13.0 6.0 50 5.1 N 13 17 7 9 1020.8 1020.9 0.0
03/10:30am 15.0 11.1 5.2 52 4.7 NNE 15 19 8 10 1021.0 1021.1 0.0
03/10:00am 14.0 10.6 6.1 59 3.8 NNE 13 15 7 8 1021.2 1021.3 0.0
03/09:30am 12.0 8.6 6.1 67 2.8 NE 13 17 7 9 1021.2 1021.3 0.0
03/09:00am 10.6 6.9 6.4 75 2.0 NE 15 20 8 11 1021.3 1021.4 0.0
03/08:30am 7.9 5.3 6.2 89 0.8 NNE 9 11 5 6 1021.4 1021.5 0.0
03/08:00am 7.0 4.8 6.4 96 0.3 NE 7 9 4 5 1021.3 1021.4 0.0
03/07:30am 4.6 1.7 4.5 99 0.0 NE 9 11 5 6 1021.3 1021.4 0.0
03/07:00am 4.1 1.1 4.0 99 0.0 ENE 9 11 5 6 1021.2 1021.3 0.0
03/06:30am 4.8 2.3 4.7 99 0.0 ENE 7 9 4 5 1021.0 1021.1 0.0
03/06:00am 3.1 1.5 2.5 96 0.2 CALM 0 0 0 0 1020.9 1021.0 0.0
03/05:30am 2.5 0.5 0.1 84 0.9 CALM 0 0 0 0 1020.5 1020.6 0.0
03/05:00am 5.5 2.6 4.5 93 0.4 ENE 9 11 5 6 1020.4 1020.5 0.0
03/04:30am 5.2 2.3 4.5 95 0.3 NE 9 11 5 6 1020.7 1020.8 0.0
03/04:00am 4.8 2.2 3.0 88 0.7 NE 6 6 3 3 1020.6 1020.7 0.0
03/03:30am 6.0 3.0 4.0 87 0.9 NE 9 11 5 6 1020.6 1020.7 0.0
03/03:00am 5.8 2.7 3.8 87 0.9 NE 9 11 5 6 1020.6 1020.7 0.0
03/02:30am 6.8 3.8 3.9 82 1.3 ENE 9 11 5 6 1020.8 1020.9 0.0
03/02:00am 6.7 3.2 3.5 80 1.4 NE 11 11 6 6 1021.2 1021.3 0.0
03/01:30am 7.4 4.0 3.8 78 1.6 ENE 11 13 6 7 1021.4 1021.5 0.0
03/01:00am 7.2 3.8 4.2 81 1.3 NE 11 13 6 7 1021.7 1021.8 0.0
03/12:30am 5.3 2.5 2.1 80 1.3 ENE 6 9 3 5 1022.1 1022.2 0.0
03/12:00am 5.8 4.1 2.1 77 1.5 CALM 0 2 0 1 1022.7 1022.8 0.0
 
Date/Time
EST
Temp
°C
App
Temp
°C
Dew
Point
°C
Rel
Hum
%
Delta-T
°C
Wind Press
QNH
hPa
Press
MSL
hPa
Rain since
9am
mm
Dir  Spd
km/h
Gust
km/h
Spd
kts
Gust
kts
02/11:30pm 7.6 4.6 2.1 68 2.3 NE 7 9 4 5 1022.7 1022.8 0.0
02/11:00pm 9.1 6.4 3.5 68 2.4 ENE 7 11 4 6 1022.6 1022.7 0.0
02/10:30pm 9.1 6.1 3.9 70 2.3 ENE 9 9 5 5 1022.7 1022.8 0.0
02/10:00pm 8.5 5.5 2.1 64 2.7 ENE 7 9 4 5 1022.9 1023.1 0.0
02/09:30pm 9.9 6.8 3.4 64 2.9 NE 9 11 5 6 1022.9 1023.1 0.0
02/09:00pm 9.2 6.1 3.4 67 2.5 NE 9 11 5 6 1022.9 1023.1 0.0
02/08:30pm 9.7 6.6 3.7 66 2.7 ENE 9 11 5 6 1022.8 1023.0 0.0
02/08:00pm 10.2 7.6 4.1 66 2.7 ENE 7 9 4 5 1022.8 1023.0 0.0
02/07:30pm 11.2 8.6 4.0 61 3.2 E 7 9 4 5 1022.5 1022.6 0.0
02/07:00pm 13.0 10.3 3.9 54 4.1 ENE 7 9 4 5 1022.4 1022.5 0.0
02/06:30pm 13.7 12.3 3.8 51 4.5 CALM 0 0 0 0 1022.3 1022.4 0.0
02/06:00pm 15.4 13.9 3.2 44 5.6 CALM 0 0 0 0 1022.2 1022.3 0.0
02/05:30pm 17.9 15.2 2.6 36 7.1 NE 6 6 3 3 1022.1 1022.2 0.0
02/05:00pm 18.9 15.4 1.4 31 7.9 NE 9 13 5 7 1022.3 1022.4 0.0
02/04:30pm 19.1 16.0 1.1 30 8.2 ENE 7 11 4 6 1022.3 1022.4 0.0
02/04:00pm 19.6 16.5 1.1 29 8.4 ENE 7 11 4 6 1022.5 1022.6 0.0
02/03:30pm 19.5 15.7 1.9 31 8.1 N 11 13 6 7 1022.7 1022.8 0.0
02/03:00pm 19.6 16.2 2.0 31 8.1 N 9 17 5 9 1022.8 1023.0 0.0
02/02:30pm 19.6 16.2 2.0 31 8.2 N 9 11 5 6 1023.0 1023.2 0.0
02/02:00pm 19.3 16.4 1.3 30 8.2 NNW 6 11 3 6 1023.3 1023.5 0.0
02/01:30pm 19.0 15.5 1.1 30 8.1 NNE 9 15 5 8 1023.8 1024.0 0.0
02/01:00pm 18.5 15.5 1.9 33 7.6 E 7 13 4 7 1024.4 1024.5 0.0
02/12:30pm 18.1 15.4 3.9 39 6.8 N 7 11 4 6 1024.9 1025.0 0.0
02/12:00pm 17.7 15.0 3.9 40 6.5 NNE 7 13 4 7 1025.2 1025.3 0.0
02/11:30am 17.2 14.9 5.5 46 5.7 NE 7 11 4 6 1025.7 1025.8 0.0
02/11:00am 16.5 13.9 6.1 50 5.1 NE 9 13 5 7 1026.1 1026.2 0.0
02/10:30am 15.3 12.3 6.1 54 4.5 N 11 15 6 8 1026.4 1026.5 0.0
02/10:00am 14.6 11.5 7.4 62 3.6 NNE 13 17 7 9 1026.5 1026.6 0.0
02/09:30am 13.2 10.1 7.4 68 2.9 NE 13 15 7 8 1026.4 1026.5 0.0
02/09:00am 11.6 9.0 7.7 77 1.9 NE 11 13 6 7 1026.2 1026.3 0.0
02/08:30am 9.5 6.7 7.1 85 1.1 NE 11 15 6 8 1026.0 1026.1 0.0
02/08:00am 7.6 4.7 6.5 93 0.5 NE 11 15 6 8 1025.9 1026.0 0.0
02/07:30am 6.3 3.0 6.2 99 0.0 NE 13 15 7 8 1025.6 1025.7 0.0
02/07:00am 5.5 2.0 5.4 99 0.0 NE 13 15 7 8 1025.4 1025.5 0.0
02/06:30am 4.7 1.8 4.6 99 0.0 NE 9 13 5 7 1025.1 1025.2 0.0
02/06:00am 2.9 0.2 2.8 99 0.0 NE 6 7 3 4 1024.9 1025.0 0.0
02/05:30am 3.5 0.7 3.4 99 0.0 NE 7 9 4 5 1024.7 1024.8 0.0
02/05:00am 3.9 1.4 3.6 98 0.1 NE 6 7 3 4 1024.6 1024.7 0.0
02/04:30am 3.6 1.1 3.5 99 0.0 NE 6 7 3 4 1024.5 1024.6 0.0
02/04:00am 2.7 0.1 0.9 88 0.7 NE 4 6 2 3 1024.6 1024.7 0.0
02/03:30am 4.1 1.3 3.4 95 0.3 NE 7 9 4 5 1024.6 1024.7 0.0
02/03:00am 4.5 1.8 3.8 95 0.3 NE 7 9 4 5 1024.7 1024.8 0.0
02/02:30am 4.0 1.1 1.5 84 1.0 NE 6 7 3 4 1024.9 1025.0 0.0
02/02:00am 6.6 3.7 4.9 89 0.7 NE 9 11 5 6 1024.8 1024.9 0.0
02/01:30am 6.5 3.6 4.7 88 0.8 NE 9 11 5 6 1024.8 1024.9 0.0
02/01:00am 6.6 3.7 4.4 86 1.0 NE 9 11 5 6 1024.9 1025.0 0.0
02/12:30am 6.8 3.9 4.6 86 1.0 NE 9 9 5 5 1025.0 1025.1 0.0
02/12:00am 7.4 4.7 5.5 88 0.9 ENE 9 11 5 6 1025.2 1025.3 0.0
 
Date/Time
EST
Temp
°C
App
Temp
°C
Dew
Point
°C
Rel
Hum
%
Delta-T
°C
Wind Press
QNH
hPa
Press
MSL
hPa
Rain since
9am
mm
Dir  Spd
km/h
Gust
km/h
Spd
kts
Gust
kts
01/11:30pm 6.4 4.0 4.1 85 1.0 NE 6 7 3 4 1025.4 1025.5 0.0
01/11:00pm 7.0 4.4 4.0 81 1.3 ENE 7 9 4 5 1025.5 1025.6 0.0
01/10:30pm 8.0 5.0 4.2 77 1.7 ENE 9 11 5 6 1025.5 1025.6 0.0

Other formats

Comma delimited format used in spreadsheet applications
http://www.bom.gov.au/fwo/IDN60801/IDN60801.94710.axf

JavaScript Object Notation format (JSON) in row-major order
http://www.bom.gov.au/fwo/IDN60801/IDN60801.94710.json

Data quality

Most of these data are generated automatically and are frequently updated. Quality checks on data are not normally performed. It is possible for incorrect values to appear. Refer to information at About Latest Weather Observations and please check the disclaimer before using these data.